Time;durP1;ratioP1;P1;durP2;ratioP2;P2;SDS_P1;SDS_P2;PMS_P1;PMS_P2;Temp;Humidity;BMP_temperature;BMP_pressure;BME280_temperature;BME280_humidity;BME280_pressure;Samples;Min_cycle;Max_cycle;Signal;HPM_P1;HPM_P2
2022/11/15 00:00:32;;;;;;;8.30;7.50;;;;;;;;;;5070498;28;20451;-75
2022/11/15 00:02:59;;;;;;;6.70;6.00;;;;;;;;;;5070950;28;20468;-75
2022/11/15 00:05:26;;;;;;;7.67;7.03;;;;;;;;;;5081321;28;20439;-78
2022/11/15 00:07:53;;;;;;;6.13;5.73;;;;;;;;;;5074226;28;20448;-76
2022/11/15 00:10:20;;;;;;;5.63;5.23;;;;;;;;;;5073243;28;20449;-76
2022/11/15 00:12:47;;;;;;;5.40;4.90;;;;;;;;;;5066769;28;20468;-76
2022/11/15 00:15:14;;;;;;;7.30;5.93;;;;;;;;;;5066715;28;20954;-74
2022/11/15 00:17:43;;;;;;;6.37;5.80;;;;;;;;;;5070913;28;20471;-75
2022/11/15 00:20:11;;;;;;;6.03;5.43;;;;;;;;;;5074462;28;20444;-75
2022/11/15 00:22:38;;;;;;;7.37;6.67;;;;;;;;;;5072705;28;20453;-75
2022/11/15 00:25:06;;;;;;;8.87;6.37;;;;;;;;;;5070571;28;20421;-75
2022/11/15 00:27:33;;;;;;;4.80;4.50;;;;;;;;;;5070296;28;20547;-75
2022/11/15 00:30:00;;;;;;;6.90;5.77;;;;;;;;;;5069963;28;20479;-76
2022/11/15 00:32:27;;;;;;;7.40;6.80;;;;;;;;;;5069622;28;20846;-76
2022/11/15 00:34:55;;;;;;;6.87;6.17;;;;;;;;;;5071313;28;21050;-75
2022/11/15 00:37:22;;;;;;;7.13;5.30;;;;;;;;;;5071477;28;20809;-75
2022/11/15 00:39:49;;;;;;;6.50;5.97;;;;;;;;;;5071289;28;20963;-75
2022/11/15 00:42:16;;;;;;;4.80;4.40;;;;;;;;;;5073558;28;20503;-75
2022/11/15 00:44:43;;;;;;;5.30;4.80;;;;;;;;;;5070060;28;20462;-76
2022/11/15 00:47:10;;;;;;;5.33;4.67;;;;;;;;;;5070141;28;20456;-75
2022/11/15 00:49:37;;;;;;;4.30;3.90;;;;;;;;;;5069933;28;20778;-75
2022/11/15 00:52:06;;;;;;;7.70;4.47;;;;;;;;;;5069657;28;20451;-75
2022/11/15 00:54:33;;;;;;;4.60;4.20;;;;;;;;;;5068519;28;20506;-76
2022/11/15 00:57:00;;;;;;;5.20;4.70;;;;;;;;;;5069341;28;20443;-74
2022/11/15 00:59:27;;;;;;;5.47;4.97;;;;;;;;;;5069336;28;20455;-79
2022/11/15 01:01:54;;;;;;;7.03;5.37;;;;;;;;;;5068812;28;20459;-76
2022/11/15 01:04:21;;;;;;;8.43;5.20;;;;;;;;;;5068475;28;20488;-76
2022/11/15 01:06:48;;;;;;;5.30;4.70;;;;;;;;;;5068643;28;21042;-75
2022/11/15 01:09:17;;;;;;;5.77;5.27;;;;;;;;;;5068496;28;20931;-75
2022/11/15 01:11:44;;;;;;;5.73;4.67;;;;;;;;;;5068704;28;20459;-75
2022/11/15 01:14:11;;;;;;;5.40;4.90;;;;;;;;;;5051535;28;20484;-75
2022/11/15 01:16:38;;;;;;;5.20;4.80;;;;;;;;;;5048805;28;20453;-75
2022/11/15 01:19:05;;;;;;;5.47;5.07;;;;;;;;;;5048631;28;20449;-75
2022/11/15 01:21:32;;;;;;;5.93;5.30;;;;;;;;;;5048991;28;21209;-77
2022/11/15 01:23:59;;;;;;;6.87;6.27;;;;;;;;;;5050199;28;20824;-74
2022/11/15 01:26:28;;;;;;;6.67;6.07;;;;;;;;;;5050737;28;20452;-74
2022/11/15 01:28:55;;;;;;;6.50;5.90;;;;;;;;;;5050979;28;20445;-75
2022/11/15 01:31:22;;;;;;;7.20;6.43;;;;;;;;;;5051094;28;20449;-75
2022/11/15 01:33:49;;;;;;;6.00;5.50;;;;;;;;;;5050222;28;20600;-75
2022/11/15 01:36:18;;;;;;;6.80;6.30;;;;;;;;;;5050826;28;20453;-75
2022/11/15 01:38:45;;;;;;;7.37;6.10;;;;;;;;;;5051038;28;20485;-75
2022/11/15 01:41:20;;;;;;;7.33;6.73;;;;;;;;;;5066727;28;20434;-75
2022/11/15 01:43:50;;;;;;;6.43;5.93;;;;;;;;;;5090509;28;20455;-76
2022/11/15 01:46:23;;;;;;;8.57;6.20;;;;;;;;;;5085685;28;20497;-75
2022/11/15 01:48:51;;;;;;;8.50;6.30;;;;;;;;;;5091990;28;20425;-76
2022/11/15 01:51:19;;;;;;;7.20;6.50;;;;;;;;;;5071768;28;20760;-77
2022/11/15 01:53:47;;;;;;;6.30;5.80;;;;;;;;;;5075500;28;20464;-74
2022/11/15 01:56:16;;;;;;;7.70;7.00;;;;;;;;;;5076953;28;20591;-74
2022/11/15 01:58:45;;;;;;;7.37;6.33;;;;;;;;;;5070390;28;20941;-76
2022/11/15 02:01:14;;;;;;;6.73;6.03;;;;;;;;;;5070769;28;20451;-77
2022/11/15 02:03:45;;;;;;;7.30;5.97;;;;;;;;;;5069772;28;20467;-76
2022/11/15 02:06:12;;;;;;;7.20;6.37;;;;;;;;;;5070340;28;20444;-75
2022/11/15 02:08:39;;;;;;;6.97;6.37;;;;;;;;;;5070251;28;20448;-75
2022/11/15 02:11:06;;;;;;;7.30;5.47;;;;;;;;;;5070457;28;20445;-74
2022/11/15 02:13:33;;;;;;;7.37;5.83;;;;;;;;;;5069434;28;20466;-75
2022/11/15 02:16:04;;;;;;;5.80;5.30;;;;;;;;;;5070533;28;20482;-74
2022/11/15 02:18:34;;;;;;;5.63;5.13;;;;;;;;;;5070456;28;20452;-76
2022/11/15 02:21:10;;;;;;;6.40;5.37;;;;;;;;;;5070487;28;20451;-74
2022/11/15 02:23:55;;;;;;;7.43;5.50;;;;;;;;;;5069623;28;20471;-76
2022/11/15 02:26:40;;;;;;;7.13;5.60;;;;;;;;;;5070518;28;20499;-75
2022/11/15 02:29:10;;;;;;;6.83;5.50;;;;;;;;;;5064209;28;20460;-75
2022/11/15 02:31:42;;;;;;;5.40;4.90;;;;;;;;;;5082574;28;20455;-74
2022/11/15 02:34:13;;;;;;;6.07;5.50;;;;;;;;;;5093820;28;20462;-74
2022/11/15 02:36:42;;;;;;;7.83;5.37;;;;;;;;;;5096087;28;20422;-75
2022/11/15 02:39:12;;;;;;;5.43;4.93;;;;;;;;;;5098390;28;20431;-75
2022/11/15 02:41:42;;;;;;;5.93;5.47;;;;;;;;;;5099946;28;20435;-76
2022/11/15 02:44:12;;;;;;;5.33;4.90;;;;;;;;;;5099661;28;20470;-75
2022/11/15 02:49:29;;;;;;;5.17;4.70;;;;;;;;;;5077897;28;20439;-77
2022/11/15 02:51:57;;;;;;;6.23;4.70;;;;;;;;;;5078391;28;20466;-76
2022/11/15 02:54:25;;;;;;;6.23;5.03;;;;;;;;;;5077526;28;20468;-75
2022/11/15 02:56:53;;;;;;;5.83;5.33;;;;;;;;;;5077634;28;20459;-75
2022/11/15 02:59:35;;;;;;;7.93;5.00;;;;;;;;;;5077898;28;20454;-75
2022/11/15 03:02:12;;;;;;;5.53;5.13;;;;;;;;;;5073591;28;20448;-76
2022/11/15 03:04:43;;;;;;;5.53;4.77;;;;;;;;;;5078120;28;20463;-74
2022/11/15 03:07:13;;;;;;;5.13;4.77;;;;;;;;;;5077122;28;20425;-75
2022/11/15 03:09:42;;;;;;;8.70;5.23;;;;;;;;;;5076971;28;20462;-74
2022/11/15 03:12:12;;;;;;;4.90;4.50;;;;;;;;;;5076585;28;20448;-76
2022/11/15 03:14:42;;;;;;;8.13;5.03;;;;;;;;;;5056958;28;20479;-75
2022/11/15 03:17:15;;;;;;;4.57;4.23;;;;;;;;;;5057076;28;20451;-75
2022/11/15 03:19:45;;;;;;;6.00;4.80;;;;;;;;;;5056613;28;20431;-75
2022/11/15 03:22:13;;;;;;;5.90;4.47;;;;;;;;;;5056410;28;20495;-75
2022/11/15 03:24:40;;;;;;;6.60;5.23;;;;;;;;;;5055581;28;21014;-76
2022/11/15 03:27:08;;;;;;;5.30;4.80;;;;;;;;;;5056918;28;20444;-75
2022/11/15 03:29:37;;;;;;;5.47;4.97;;;;;;;;;;5057733;28;20449;-74
2022/11/15 03:32:07;;;;;;;5.37;4.90;;;;;;;;;;5059491;28;20447;-75
2022/11/15 03:34:37;;;;;;;4.80;4.40;;;;;;;;;;5056602;28;20471;-76
2022/11/15 03:37:05;;;;;;;7.40;5.67;;;;;;;;;;5056864;28;20443;-74
2022/11/15 03:39:32;;;;;;;5.20;4.70;;;;;;;;;;5056397;28;20449;-74
2022/11/15 03:42:06;;;;;;;5.10;4.70;;;;;;;;;;5055958;28;20465;-75
2022/11/15 03:44:43;;;;;;;5.97;5.37;;;;;;;;;;5057527;28;20953;-75
2022/11/15 03:47:14;;;;;;;5.10;4.70;;;;;;;;;;5053223;28;20432;-75
2022/11/15 03:49:44;;;;;;;5.73;5.10;;;;;;;;;;5053139;28;20448;-75
2022/11/15 03:52:12;;;;;;;5.00;4.50;;;;;;;;;;5053126;28;20441;-75
2022/11/15 03:54:48;;;;;;;5.60;5.20;;;;;;;;;;5052187;28;20483;-75
2022/11/15 03:57:15;;;;;;;5.80;5.30;;;;;;;;;;5052486;28;20451;-75
2022/11/15 03:59:42;;;;;;;5.73;4.90;;;;;;;;;;5052751;28;20457;-75
2022/11/15 04:02:09;;;;;;;5.60;5.10;;;;;;;;;;5052686;28;20443;-76
2022/11/15 04:04:37;;;;;;;5.80;5.03;;;;;;;;;;5051883;28;20481;-75
2022/11/15 04:07:05;;;;;;;5.73;4.90;;;;;;;;;;5052362;28;20445;-74
2022/11/15 04:09:32;;;;;;;5.00;4.60;;;;;;;;;;5052224;28;20437;-76
2022/11/15 04:11:59;;;;;;;5.33;4.93;;;;;;;;;;5052618;28;20452;-76
2022/11/15 04:14:26;;;;;;;5.40;4.90;;;;;;;;;;5051695;28;20453;-75
2022/11/15 04:16:53;;;;;;;5.43;4.93;;;;;;;;;;5052604;28;20500;-74
2022/11/15 04:25:02;;;;;;;7.77;4.80;;;;;;;;;;5011635;28;20436;-76
2022/11/15 04:27:29;;;;;;;5.80;5.20;;;;;;;;;;5060286;28;20445;-75
2022/11/15 04:29:58;;;;;;;5.73;5.23;;;;;;;;;;5073973;28;20452;-75
2022/11/15 04:32:25;;;;;;;5.33;4.93;;;;;;;;;;5072374;28;20440;-76
2022/11/15 04:34:52;;;;;;;5.40;5.00;;;;;;;;;;5071857;28;20495;-75
2022/11/15 04:37:20;;;;;;;5.90;4.90;;;;;;;;;;5074990;28;20459;-75
2022/11/15 04:39:47;;;;;;;5.13;4.73;;;;;;;;;;5075239;28;20451;-74
2022/11/15 04:42:15;;;;;;;7.30;5.23;;;;;;;;;;5073525;28;20468;-77
2022/11/15 04:44:42;;;;;;;5.50;5.10;;;;;;;;;;5074223;28;20464;-75
2022/11/15 04:47:09;;;;;;;6.47;5.33;;;;;;;;;;5077311;28;20444;-76
2022/11/15 04:49:36;;;;;;;5.33;4.83;;;;;;;;;;5079297;28;20550;-74
2022/11/15 04:52:03;;;;;;;6.93;4.73;;;;;;;;;;5078715;28;20445;-75
2022/11/15 04:54:31;;;;;;;6.00;5.40;;;;;;;;;;5072088;28;20469;-74
2022/11/15 04:56:59;;;;;;;5.27;4.87;;;;;;;;;;5071192;28;20472;-75
2022/11/15 04:59:26;;;;;;;5.90;5.50;;;;;;;;;;5071577;28;20449;-75
2022/11/15 05:01:53;;;;;;;7.10;6.40;;;;;;;;;;5069433;28;20450;-75
2022/11/15 05:04:19;;;;;;;10.57;8.83;;;;;;;;;;5071442;28;20471;-75
2022/11/15 05:06:46;;;;;;;10.30;9.30;;;;;;;;;;5068165;28;20445;-76
2022/11/15 05:09:14;;;;;;;6.50;5.90;;;;;;;;;;5057910;28;20498;-75
2022/11/15 05:11:42;;;;;;;7.43;6.83;;;;;;;;;;5066960;28;20465;-74
2022/11/15 05:14:09;;;;;;;6.83;6.17;;;;;;;;;;5065854;28;20475;-75
2022/11/15 05:16:37;;;;;;;7.77;6.33;;;;;;;;;;5071093;28;20483;-75
2022/11/15 05:19:04;;;;;;;7.90;7.10;;;;;;;;;;5071233;28;20447;-75
2022/11/15 05:21:31;;;;;;;9.93;9.03;;;;;;;;;;5071212;28;20476;-74
2022/11/15 05:23:58;;;;;;;29.30;26.13;;;;;;;;;;5070067;28;20480;-75
2022/11/15 05:26:25;;;;;;;41.10;33.70;;;;;;;;;;5070861;28;20434;-75
2022/11/15 05:28:55;;;;;;;16.90;12.53;;;;;;;;;;5069365;28;20445;-76
2022/11/15 05:31:22;;;;;;;9.10;7.40;;;;;;;;;;5071050;28;20478;-74
2022/11/15 05:33:50;;;;;;;7.77;6.30;;;;;;;;;;5069911;28;20468;-75
2022/11/15 05:36:19;;;;;;;6.00;5.50;;;;;;;;;;5070669;28;20483;-76
2022/11/15 05:38:47;;;;;;;6.00;5.50;;;;;;;;;;5070758;28;20451;-75
2022/11/15 05:41:14;;;;;;;6.43;5.40;;;;;;;;;;5070722;28;20454;-75
2022/11/15 05:43:42;;;;;;;7.50;5.50;;;;;;;;;;5069923;28;20459;-74
2022/11/15 05:46:11;;;;;;;5.37;4.97;;;;;;;;;;5070798;28;20444;-76
2022/11/15 05:48:39;;;;;;;5.60;5.10;;;;;;;;;;5070634;28;20448;-76
2022/11/15 05:51:06;;;;;;;7.40;5.87;;;;;;;;;;5070429;28;20449;-76
2022/11/15 05:53:34;;;;;;;6.23;5.73;;;;;;;;;;5069411;28;20745;-76
2022/11/15 05:56:01;;;;;;;5.90;5.23;;;;;;;;;;5070411;28;20479;-76
2022/11/15 05:58:28;;;;;;;6.40;5.60;;;;;;;;;;5070157;28;20429;-77
2022/11/15 06:00:55;;;;;;;7.00;6.30;;;;;;;;;;5075369;28;20450;-76
2022/11/15 06:03:24;;;;;;;7.17;6.30;;;;;;;;;;5069779;28;20460;-76
2022/11/15 06:05:51;;;;;;;6.37;5.80;;;;;;;;;;5069705;28;20444;-76
2022/11/15 06:08:18;;;;;;;8.17;6.67;;;;;;;;;;5070932;28;20439;-76
2022/11/15 06:10:45;;;;;;;10.33;7.50;;;;;;;;;;5072565;28;20441;-77
2022/11/15 06:13:12;;;;;;;8.13;7.33;;;;;;;;;;5061943;28;20759;-76
2022/11/15 06:15:39;;;;;;;9.07;8.27;;;;;;;;;;5050304;28;21306;-77
2022/11/15 06:18:06;;;;;;;9.30;7.70;;;;;;;;;;5050154;28;20965;-77
2022/11/15 06:20:34;;;;;;;7.87;7.17;;;;;;;;;;5050316;28;20442;-77
2022/11/15 06:23:02;;;;;;;7.37;6.57;;;;;;;;;;5051604;28;20475;-76
2022/11/15 06:25:29;;;;;;;7.23;6.63;;;;;;;;;;5056756;28;20487;-76
2022/11/15 06:27:57;;;;;;;9.17;7.40;;;;;;;;;;5060183;28;20453;-77
2022/11/15 06:30:25;;;;;;;8.60;7.70;;;;;;;;;;5076569;28;20436;-76
2022/11/15 06:32:52;;;;;;;8.07;7.37;;;;;;;;;;5072190;28;20480;-77
2022/11/15 06:35:19;;;;;;;8.80;7.90;;;;;;;;;;5069701;28;20450;-77
2022/11/15 06:37:48;;;;;;;10.10;9.07;;;;;;;;;;5069786;28;20454;-77
2022/11/15 06:40:15;;;;;;;9.60;8.70;;;;;;;;;;5061801;28;20456;-76
2022/11/15 06:42:42;;;;;;;12.10;8.77;;;;;;;;;;5065997;28;20456;-77
2022/11/15 06:45:09;;;;;;;8.37;7.43;;;;;;;;;;5069335;28;20441;-77
2022/11/15 06:47:36;;;;;;;8.13;7.40;;;;;;;;;;5069503;28;20444;-76
2022/11/15 06:50:03;;;;;;;7.10;6.40;;;;;;;;;;5068402;28;20797;-76
2022/11/15 06:52:32;;;;;;;9.60;8.17;;;;;;;;;;5060762;28;20916;-77
2022/11/15 06:55:00;;;;;;;10.70;9.67;;;;;;;;;;5069726;28;20967;-77
2022/11/15 06:57:28;;;;;;;8.60;7.53;;;;;;;;;;5069826;28;20481;-77
2022/11/15 06:59:55;;;;;;;8.33;7.50;;;;;;;;;;5070005;28;20442;-77
2022/11/15 07:02:22;;;;;;;8.40;7.53;;;;;;;;;;5070042;28;20463;-76
2022/11/15 07:04:49;;;;;;;9.53;7.60;;;;;;;;;;5069671;28;20461;-77
2022/11/15 07:07:16;;;;;;;11.00;9.30;;;;;;;;;;5069757;28;20810;-77
2022/11/15 07:09:43;;;;;;;9.70;8.70;;;;;;;;;;5065980;28;21047;-77
2022/11/15 07:12:11;;;;;;;10.40;8.33;;;;;;;;;;5070162;28;20443;-76
2022/11/15 07:14:38;;;;;;;10.70;9.60;;;;;;;;;;5049607;28;20470;-77
2022/11/15 07:17:05;;;;;;;12.43;9.10;;;;;;;;;;5050371;28;20473;-77
2022/11/15 07:19:32;;;;;;;12.10;8.20;;;;;;;;;;5052965;28;20810;-76
2022/11/15 07:21:59;;;;;;;12.63;9.03;;;;;;;;;;5053842;28;20441;-77
2022/11/15 07:24:26;;;;;;;9.97;9.03;;;;;;;;;;5052581;28;20487;-76
2022/11/15 07:26:54;;;;;;;11.97;9.53;;;;;;;;;;5053373;28;20448;-77
2022/11/15 07:29:22;;;;;;;9.83;8.83;;;;;;;;;;5053219;28;20468;-77
2022/11/15 07:31:51;;;;;;;9.60;8.23;;;;;;;;;;5053207;28;20460;-76
2022/11/15 07:34:18;;;;;;;9.73;8.00;;;;;;;;;;5052611;28;20465;-77
2022/11/15 07:36:45;;;;;;;14.17;7.93;;;;;;;;;;5053383;28;20480;-77
2022/11/15 07:39:13;;;;;;;14.40;9.20;;;;;;;;;;5053307;28;20533;-77
2022/11/15 07:41:41;;;;;;;21.43;8.30;;;;;;;;;;5053152;28;20449;-77
2022/11/15 07:44:08;;;;;;;13.67;7.50;;;;;;;;;;5052234;28;20476;-76
2022/11/15 07:46:36;;;;;;;8.80;7.00;;;;;;;;;;5052844;28;20442;-75
2022/11/15 07:49:03;;;;;;;19.70;8.60;;;;;;;;;;5054896;28;20445;-76
2022/11/15 07:51:30;;;;;;;10.30;8.27;;;;;;;;;;5052890;28;20441;-77
2022/11/15 07:53:57;;;;;;;8.03;7.23;;;;;;;;;;5051711;28;21010;-77
2022/11/15 07:56:24;;;;;;;11.80;7.33;;;;;;;;;;5052575;28;20477;-77
2022/11/15 07:58:51;;;;;;;9.23;8.33;;;;;;;;;;5052306;28;20447;-77
2022/11/15 08:01:18;;;;;;;12.33;9.03;;;;;;;;;;5052610;28;20967;-77
2022/11/15 08:03:47;;;;;;;9.37;7.97;;;;;;;;;;5051991;28;21082;-76
2022/11/15 08:06:14;;;;;;;9.90;8.77;;;;;;;;;;5052069;28;20441;-77
2022/11/15 08:08:41;;;;;;;11.37;8.97;;;;;;;;;;5052498;28;20447;-77
2022/11/15 08:11:08;;;;;;;11.40;9.20;;;;;;;;;;5052235;28;20437;-77
2022/11/15 08:13:35;;;;;;;10.73;8.57;;;;;;;;;;5063279;28;20917;-76
2022/11/15 08:16:05;;;;;;;9.80;8.80;;;;;;;;;;5072431;28;20480;-75
2022/11/15 08:18:32;;;;;;;10.90;8.90;;;;;;;;;;5072460;28;21034;-78
2022/11/15 08:21:01;;;;;;;9.53;8.50;;;;;;;;;;5072416;28;20445;-76
2022/11/15 08:23:29;;;;;;;13.10;9.73;;;;;;;;;;5072090;28;20476;-77
2022/11/15 08:26:00;;;;;;;14.03;9.73;;;;;;;;;;5073870;28;20463;-77
2022/11/15 08:28:27;;;;;;;10.23;9.17;;;;;;;;;;5076165;28;20437;-77
2022/11/15 08:30:54;;;;;;;11.57;9.47;;;;;;;;;;5076150;28;20444;-77
2022/11/15 08:33:21;;;;;;;11.63;8.87;;;;;;;;;;5075183;28;20487;-77
2022/11/15 08:35:48;;;;;;;12.23;9.20;;;;;;;;;;5072460;28;20448;-76
2022/11/15 08:38:17;;;;;;;9.67;8.73;;;;;;;;;;5071727;28;20453;-77
2022/11/15 08:40:44;;;;;;;10.70;9.30;;;;;;;;;;5072278;28;20475;-77
2022/11/15 08:43:11;;;;;;;16.33;10.37;;;;;;;;;;5072995;28;20637;-76
2022/11/15 08:45:38;;;;;;;20.23;10.27;;;;;;;;;;5065620;28;20445;-76
2022/11/15 08:48:05;;;;;;;29.03;12.23;;;;;;;;;;5071975;28;20463;-78
2022/11/15 08:50:32;;;;;;;18.10;8.90;;;;;;;;;;5069240;28;20442;-77
2022/11/15 08:53:05;;;;;;;16.30;8.80;;;;;;;;;;5070450;28;20464;-77
2022/11/15 08:55:33;;;;;;;14.43;8.53;;;;;;;;;;5074874;28;20440;-76
2022/11/15 08:58:00;;;;;;;11.10;8.63;;;;;;;;;;5066718;28;20481;-77
2022/11/15 09:00:27;;;;;;;8.13;7.43;;;;;;;;;;5075484;28;20441;-78
2022/11/15 09:02:54;;;;;;;9.20;6.50;;;;;;;;;;5076937;28;20456;-76
2022/11/15 09:05:21;;;;;;;7.50;6.80;;;;;;;;;;5072593;28;20441;-77
2022/11/15 09:07:48;;;;;;;11.63;7.10;;;;;;;;;;5074649;28;20444;-78
2022/11/15 09:10:16;;;;;;;8.37;7.03;;;;;;;;;;5063370;28;20906;-80
2022/11/15 09:12:48;;;;;;;7.10;6.50;;;;;;;;;;5056530;28;20458;-77
2022/11/15 09:15:15;;;;;;;8.47;6.27;;;;;;;;;;5065797;28;20540;-77
2022/11/15 09:17:42;;;;;;;11.33;7.50;;;;;;;;;;5071440;28;20479;-77
2022/11/15 09:20:09;;;;;;;8.20;6.60;;;;;;;;;;5071164;28;20744;-77
2022/11/15 09:22:38;;;;;;;8.23;6.00;;;;;;;;;;5070876;28;20472;-77
2022/11/15 09:25:05;;;;;;;6.97;6.27;;;;;;;;;;5069085;28;20498;-77
2022/11/15 09:27:33;;;;;;;8.77;6.60;;;;;;;;;;5071561;28;20437;-76
2022/11/15 09:30:01;;;;;;;12.20;6.83;;;;;;;;;;5071728;28;20445;-78
2022/11/15 09:32:29;;;;;;;19.40;7.73;;;;;;;;;;5070861;28;20451;-77
2022/11/15 09:34:57;;;;;;;22.90;7.17;;;;;;;;;;5070489;28;20573;-77
2022/11/15 09:37:24;;;;;;;11.57;7.17;;;;;;;;;;5070673;28;20460;-77
2022/11/15 09:39:52;;;;;;;10.00;7.50;;;;;;;;;;5070981;28;20432;-78
2022/11/15 09:42:24;;;;;;;7.13;6.53;;;;;;;;;;5070488;28;20450;-75
2022/11/15 09:44:58;;;;;;;9.77;6.83;;;;;;;;;;5071017;28;20461;-76
2022/11/15 09:47:36;;;;;;;8.67;7.30;;;;;;;;;;5089872;28;20429;-77
2022/11/15 09:50:10;;;;;;;8.60;6.60;;;;;;;;;;5084886;28;20436;-76
2022/11/15 09:52:38;;;;;;;13.23;6.90;;;;;;;;;;5070656;28;20417;-76
2022/11/15 09:55:06;;;;;;;14.00;7.33;;;;;;;;;;5070264;28;20452;-76
2022/11/15 09:57:44;;;;;;;13.13;7.50;;;;;;;;;;5070742;28;20481;-76
2022/11/15 10:00:13;;;;;;;12.33;7.07;;;;;;;;;;5071459;28;20455;-76
2022/11/15 10:02:51;;;;;;;11.90;7.97;;;;;;;;;;5083293;28;20480;-76
2022/11/15 10:05:19;;;;;;;11.20;5.93;;;;;;;;;;5074923;28;20429;-76
2022/11/15 10:07:50;;;;;;;8.03;6.73;;;;;;;;;;5075236;28;20464;-75
2022/11/15 10:10:22;;;;;;;8.53;6.60;;;;;;;;;;5076087;28;20796;-77
2022/11/15 10:12:49;;;;;;;20.47;7.43;;;;;;;;;;5070723;28;20437;-76
2022/11/15 10:15:22;;;;;;;24.63;7.63;;;;;;;;;;5069940;28;20441;-77
2022/11/15 10:18:00;;;;;;;15.93;7.50;;;;;;;;;;5070747;28;20560;-75
2022/11/15 10:20:29;;;;;;;16.90;5.93;;;;;;;;;;5070360;28;20429;-78
2022/11/15 10:22:57;;;;;;;8.83;6.90;;;;;;;;;;5069453;28;20873;-77
2022/11/15 10:25:24;;;;;;;9.80;5.90;;;;;;;;;;5070505;28;20425;-77
2022/11/15 10:28:00;;;;;;;7.40;6.03;;;;;;;;;;5070357;28;20441;-77
2022/11/15 10:30:32;;;;;;;8.10;6.10;;;;;;;;;;5069982;28;20452;-77
2022/11/15 10:33:10;;;;;;;7.37;6.40;;;;;;;;;;5069030;28;20460;-77
2022/11/15 10:35:37;;;;;;;9.10;6.13;;;;;;;;;;5069397;28;20456;-77
2022/11/15 10:38:06;;;;;;;7.40;6.20;;;;;;;;;;5069320;28;20484;-76
2022/11/15 10:40:33;;;;;;;9.80;7.03;;;;;;;;;;5070289;28;20514;-77
2022/11/15 10:43:06;;;;;;;16.60;6.90;;;;;;;;;;5068605;28;20984;-76
2022/11/15 10:45:34;;;;;;;14.40;6.80;;;;;;;;;;5069693;28;20701;-77
2022/11/15 10:48:16;;;;;;;8.70;7.13;;;;;;;;;;5069911;28;20916;-76
2022/11/15 10:50:46;;;;;;;11.27;5.90;;;;;;;;;;5069230;28;20464;-77
2022/11/15 10:53:17;;;;;;;7.20;5.90;;;;;;;;;;5071434;28;20487;-76
2022/11/15 10:55:47;;;;;;;6.27;5.37;;;;;;;;;;5072989;28;20425;-76
2022/11/15 10:58:22;;;;;;;6.40;5.30;;;;;;;;;;5073804;28;20480;-78
2022/11/15 11:00:49;;;;;;;7.00;5.20;;;;;;;;;;5073430;28;20443;-76
2022/11/15 11:03:27;;;;;;;6.80;6.10;;;;;;;;;;5072867;28;20808;-77
2022/11/15 11:06:04;;;;;;;9.50;6.00;;;;;;;;;;5073522;28;20494;-77
2022/11/15 11:08:32;;;;;;;9.23;6.57;;;;;;;;;;5073207;28;20436;-77
2022/11/15 11:11:01;;;;;;;9.40;7.13;;;;;;;;;;5076133;28;20530;-77
2022/11/15 11:13:29;;;;;;;10.63;7.20;;;;;;;;;;5073511;28;20467;-77
2022/11/15 11:15:59;;;;;;;8.67;7.17;;;;;;;;;;5073004;28;20452;-77
2022/11/15 11:18:28;;;;;;;9.93;7.00;;;;;;;;;;5073082;28;20467;-78
2022/11/15 11:20:59;;;;;;;9.17;6.80;;;;;;;;;;5072915;28;20457;-78
2022/11/15 11:23:35;;;;;;;10.37;7.50;;;;;;;;;;5072461;28;20979;-77
2022/11/15 11:26:09;;;;;;;12.57;7.27;;;;;;;;;;5073328;28;20439;-77
2022/11/15 11:28:41;;;;;;;9.10;6.37;;;;;;;;;;5072970;28;20924;-77
2022/11/15 11:31:14;;;;;;;11.87;6.63;;;;;;;;;;5073518;28;20790;-76
2022/11/15 11:33:43;;;;;;;7.13;6.40;;;;;;;;;;5072565;28;20469;-76
2022/11/15 11:36:15;;;;;;;8.80;6.77;;;;;;;;;;5072670;28;20818;-77
2022/11/15 11:38:58;;;;;;;12.13;7.10;;;;;;;;;;5069025;28;20464;-77
2022/11/15 11:41:32;;;;;;;9.87;7.20;;;;;;;;;;5067521;28;20985;-78
2022/11/15 11:44:05;;;;;;;10.30;7.73;;;;;;;;;;5070981;28;20460;-77
2022/11/15 11:46:43;;;;;;;8.80;7.93;;;;;;;;;;5068855;28;20444;-76
2022/11/15 11:49:11;;;;;;;12.60;9.00;;;;;;;;;;5077104;28;20979;-77
2022/11/15 11:51:41;;;;;;;9.30;8.40;;;;;;;;;;5082396;28;20445;-78
2022/11/15 11:54:13;;;;;;;8.33;7.50;;;;;;;;;;5080167;28;21006;-77
2022/11/15 11:56:42;;;;;;;8.40;6.33;;;;;;;;;;5080741;28;20432;-78
2022/11/15 11:59:15;;;;;;;10.87;6.70;;;;;;;;;;5074291;28;20447;-78
2022/11/15 12:01:44;;;;;;;7.93;7.20;;;;;;;;;;5072454;28;20429;-77
2022/11/15 12:04:13;;;;;;;8.93;6.70;;;;;;;;;;5070808;28;20464;-77
2022/11/15 12:06:43;;;;;;;10.30;7.43;;;;;;;;;;5072398;28;20452;-78
2022/11/15 12:09:17;;;;;;;12.97;8.20;;;;;;;;;;5072200;28;20436;-77
2022/11/15 12:11:48;;;;;;;12.33;7.33;;;;;;;;;;5072411;28;20425;-78
2022/11/15 12:14:19;;;;;;;10.10;7.10;;;;;;;;;;5072116;28;20461;-78
2022/11/15 12:16:46;;;;;;;9.37;7.43;;;;;;;;;;5072339;28;20439;-78
2022/11/15 12:19:13;;;;;;;10.13;7.23;;;;;;;;;;5072499;28;20445;-77
2022/11/15 12:21:44;;;;;;;12.80;7.83;;;;;;;;;;5072471;28;20448;-78
2022/11/15 12:24:16;;;;;;;8.67;6.83;;;;;;;;;;5072882;28;20527;-79
2022/11/15 12:26:46;;;;;;;10.57;7.00;;;;;;;;;;5075055;28;20452;-76
2022/11/15 12:29:17;;;;;;;9.53;7.73;;;;;;;;;;5073639;28;20444;-77
2022/11/15 12:31:46;;;;;;;9.07;7.07;;;;;;;;;;5072489;28;20860;-78
2022/11/15 12:34:31;;;;;;;12.70;7.07;;;;;;;;;;5073270;28;20461;-76
2022/11/15 12:36:58;;;;;;;9.07;6.60;;;;;;;;;;5076501;28;20433;-79
2022/11/15 12:39:40;;;;;;;9.50;6.73;;;;;;;;;;5076618;28;20448;-78
2022/11/15 12:42:38;;;;;;;7.90;6.40;;;;;;;;;;5074069;28;20837;-77
2022/11/15 12:45:25;;;;;;;11.03;7.90;;;;;;;;;;5078397;28;20970;-78
2022/11/15 12:47:52;;;;;;;10.97;6.87;;;;;;;;;;5077210;28;20451;-78
2022/11/15 12:50:42;;;;;;;9.77;6.33;;;;;;;;;;5061282;28;20460;-79
2022/11/15 12:53:27;;;;;;;8.40;6.23;;;;;;;;;;5071519;28;20475;-79
2022/11/15 12:56:09;;;;;;;11.97;7.40;;;;;;;;;;5074534;28;20910;-78
2022/11/15 12:58:43;;;;;;;9.33;7.30;;;;;;;;;;5074028;28;20487;-78
2022/11/15 13:01:10;;;;;;;9.77;7.37;;;;;;;;;;5075358;28;20459;-78
2022/11/15 13:03:57;;;;;;;7.97;6.10;;;;;;;;;;5073950;28;20999;-76
2022/11/15 13:06:45;;;;;;;7.67;6.70;;;;;;;;;;5073647;28;20459;-78
2022/11/15 13:09:31;;;;;;;9.57;6.47;;;;;;;;;;5072354;28;20974;-77
2022/11/15 13:11:59;;;;;;;7.70;6.90;;;;;;;;;;5072943;28;20432;-78
2022/11/15 13:14:47;;;;;;;7.90;7.10;;;;;;;;;;5071920;28;20495;-78
2022/11/15 13:17:23;;;;;;;8.23;6.70;;;;;;;;;;5070464;28;20433;-77
2022/11/15 13:19:54;;;;;;;7.63;6.80;;;;;;;;;;5071485;28;20459;-77
2022/11/15 13:25:18;;;;;;;6.97;5.80;;;;;;;;;;5061041;28;20479;-77
2022/11/15 13:27:46;;;;;;;6.27;5.77;;;;;;;;;;5070506;28;20521;-76
2022/11/15 13:30:17;;;;;;;6.80;5.00;;;;;;;;;;5070793;28;20441;-77
2022/11/15 13:32:44;;;;;;;7.93;4.97;;;;;;;;;;5070358;28;20964;-76
2022/11/15 13:35:11;;;;;;;6.50;5.80;;;;;;;;;;5070701;28;20472;-78
2022/11/15 13:37:39;;;;;;;6.20;5.57;;;;;;;;;;5070859;28;20472;-77
2022/11/15 13:40:20;;;;;;;7.40;5.10;;;;;;;;;;5071658;28;20498;-77
2022/11/15 13:42:47;;;;;;;9.73;6.30;;;;;;;;;;5070787;28;20940;-78
2022/11/15 13:45:15;;;;;;;22.23;12.47;;;;;;;;;;5070485;28;20948;-76
2022/11/15 13:47:43;;;;;;;11.70;7.13;;;;;;;;;;5070657;28;20932;-77
2022/11/15 13:50:12;;;;;;;6.40;4.43;;;;;;;;;;5069997;28;20429;-77
2022/11/15 13:52:42;;;;;;;6.20;5.20;;;;;;;;;;5070352;28;20445;-77
2022/11/15 13:55:13;;;;;;;8.20;6.37;;;;;;;;;;5072454;28;20447;-78
2022/11/15 13:57:43;;;;;;;9.07;6.50;;;;;;;;;;5072700;28;20510;-77
2022/11/15 14:00:26;;;;;;;6.07;5.07;;;;;;;;;;5072822;28;20819;-78
2022/11/15 14:02:55;;;;;;;5.90;5.40;;;;;;;;;;5072517;28;20998;-78
2022/11/15 14:05:23;;;;;;;7.87;4.70;;;;;;;;;;5072976;28;20451;-78
2022/11/15 14:07:54;;;;;;;7.67;4.93;;;;;;;;;;5075482;28;20447;-78
2022/11/15 14:10:26;;;;;;;5.00;4.50;;;;;;;;;;5070217;28;20437;-77
2022/11/15 14:12:54;;;;;;;5.20;4.70;;;;;;;;;;5070049;28;20662;-77
2022/11/15 14:15:27;;;;;;;9.50;5.80;;;;;;;;;;5070029;28;20456;-78
2022/11/15 14:17:55;;;;;;;5.13;4.70;;;;;;;;;;5070344;28;20471;-78
2022/11/15 14:20:30;;;;;;;4.60;4.00;;;;;;;;;;5070371;28;20472;-78
2022/11/15 14:22:58;;;;;;;5.57;4.80;;;;;;;;;;5069822;28;20553;-78
2022/11/15 14:25:26;;;;;;;5.40;4.90;;;;;;;;;;5070257;28;20482;-78
2022/11/15 14:28:14;;;;;;;8.10;5.50;;;;;;;;;;5070219;28;20444;-78
2022/11/15 14:30:42;;;;;;;6.27;4.70;;;;;;;;;;5070864;28;20448;-78
2022/11/15 14:33:30;;;;;;;7.93;5.30;;;;;;;;;;5071239;28;20483;-79
2022/11/15 14:35:59;;;;;;;7.27;6.30;;;;;;;;;;5065338;28;20440;-78
2022/11/15 14:38:26;;;;;;;8.13;5.67;;;;;;;;;;5071685;28;20566;-78
2022/11/15 14:40:55;;;;;;;6.93;5.57;;;;;;;;;;5084763;28;20455;-78
2022/11/15 14:43:22;;;;;;;5.00;4.50;;;;;;;;;;5084054;28;21001;-77
2022/11/15 14:45:50;;;;;;;5.50;5.00;;;;;;;;;;5082189;28;20773;-78
2022/11/15 14:48:17;;;;;;;5.10;4.70;;;;;;;;;;5083230;28;20445;-78
2022/11/15 14:50:44;;;;;;;5.20;4.80;;;;;;;;;;5076855;28;20459;-77
2022/11/15 14:53:15;;;;;;;5.10;4.57;;;;;;;;;;5070370;28;20456;-78
2022/11/15 14:55:42;;;;;;;5.30;4.83;;;;;;;;;;5069785;28;20433;-77
2022/11/15 14:58:09;;;;;;;4.60;4.20;;;;;;;;;;5070348;28;20476;-78
2022/11/15 15:00:37;;;;;;;4.50;4.10;;;;;;;;;;5070801;28;20445;-78
2022/11/15 15:03:04;;;;;;;6.90;4.00;;;;;;;;;;5071569;28;20460;-77
2022/11/15 15:05:33;;;;;;;4.90;4.50;;;;;;;;;;5071450;28;20487;-78